sensor_id;sensor_type;location;lat;lon;timestamp;P1;durP1;ratioP1;P2;durP2;ratioP2
55469;SDS011;41334;47.872;16.384;2022-07-05T00:02:35;4.80;;;2.45;;
55469;SDS011;41334;47.872;16.384;2022-07-05T00:05:37;3.58;;;2.63;;
55469;SDS011;41334;47.872;16.384;2022-07-05T00:08:39;6.35;;;2.47;;
55469;SDS011;41334;47.872;16.384;2022-07-05T00:11:41;5.22;;;2.40;;
55469;SDS011;41334;47.872;16.384;2022-07-05T00:14:43;6.53;;;2.60;;
55469;SDS011;41334;47.872;16.384;2022-07-05T00:17:46;4.57;;;2.70;;
55469;SDS011;41334;47.872;16.384;2022-07-05T00:20:48;2.97;;;2.35;;
55469;SDS011;41334;47.872;16.384;2022-07-05T00:23:49;3.50;;;2.60;;
55469;SDS011;41334;47.872;16.384;2022-07-05T00:26:51;6.22;;;2.80;;
55469;SDS011;41334;47.872;16.384;2022-07-05T00:29:54;5.00;;;2.50;;
55469;SDS011;41334;47.872;16.384;2022-07-05T00:32:55;4.32;;;2.40;;
55469;SDS011;41334;47.872;16.384;2022-07-05T00:35:57;4.53;;;2.55;;
55469;SDS011;41334;47.872;16.384;2022-07-05T00:38:59;3.85;;;2.33;;
55469;SDS011;41334;47.872;16.384;2022-07-05T00:42:02;4.32;;;2.28;;
55469;SDS011;41334;47.872;16.384;2022-07-05T00:45:04;5.72;;;2.20;;
55469;SDS011;41334;47.872;16.384;2022-07-05T00:48:08;3.65;;;2.45;;
55469;SDS011;41334;47.872;16.384;2022-07-05T00:51:10;4.38;;;2.47;;
55469;SDS011;41334;47.872;16.384;2022-07-05T00:54:12;4.57;;;2.67;;
55469;SDS011;41334;47.872;16.384;2022-07-05T00:57:13;4.60;;;2.67;;
55469;SDS011;41334;47.872;16.384;2022-07-05T01:00:16;5.53;;;2.50;;
55469;SDS011;41334;47.872;16.384;2022-07-05T01:03:19;5.50;;;2.50;;
55469;SDS011;41334;47.872;16.384;2022-07-05T01:06:20;6.65;;;2.90;;
55469;SDS011;41334;47.872;16.384;2022-07-05T01:09:22;7.25;;;3.10;;
55469;SDS011;41334;47.872;16.384;2022-07-05T01:12:24;4.22;;;2.80;;
55469;SDS011;41334;47.872;16.384;2022-07-05T01:15:26;5.35;;;2.78;;
55469;SDS011;41334;47.872;16.384;2022-07-05T01:18:29;7.03;;;2.63;;
55469;SDS011;41334;47.872;16.384;2022-07-05T01:21:33;9.48;;;3.20;;
55469;SDS011;41334;47.872;16.384;2022-07-05T01:24:40;10.13;;;2.90;;
55469;SDS011;41334;47.872;16.384;2022-07-05T01:27:43;6.25;;;2.55;;
55469;SDS011;41334;47.872;16.384;2022-07-05T01:30:45;7.28;;;2.83;;
55469;SDS011;41334;47.872;16.384;2022-07-05T01:33:48;5.85;;;2.78;;
55469;SDS011;41334;47.872;16.384;2022-07-05T01:36:50;7.78;;;2.72;;
55469;SDS011;41334;47.872;16.384;2022-07-05T01:39:52;4.50;;;2.40;;
55469;SDS011;41334;47.872;16.384;2022-07-05T01:42:54;3.92;;;2.45;;
55469;SDS011;41334;47.872;16.384;2022-07-05T01:45:57;4.03;;;2.35;;
55469;SDS011;41334;47.872;16.384;2022-07-05T01:49:03;5.25;;;2.63;;
55469;SDS011;41334;47.872;16.384;2022-07-05T01:52:08;5.13;;;2.63;;
55469;SDS011;41334;47.872;16.384;2022-07-05T01:55:12;4.70;;;2.25;;
55469;SDS011;41334;47.872;16.384;2022-07-05T01:58:14;4.88;;;2.75;;
55469;SDS011;41334;47.872;16.384;2022-07-05T02:01:25;5.80;;;2.90;;
55469;SDS011;41334;47.872;16.384;2022-07-05T02:04:34;6.30;;;2.90;;
55469;SDS011;41334;47.872;16.384;2022-07-05T02:07:48;4.28;;;2.95;;
55469;SDS011;41334;47.872;16.384;2022-07-05T02:10:51;5.28;;;2.80;;
55469;SDS011;41334;47.872;16.384;2022-07-05T02:13:53;4.78;;;3.08;;
55469;SDS011;41334;47.872;16.384;2022-07-05T02:16:56;7.63;;;3.40;;
55469;SDS011;41334;47.872;16.384;2022-07-05T02:19:59;5.22;;;2.83;;
55469;SDS011;41334;47.872;16.384;2022-07-05T02:23:02;3.70;;;2.90;;
55469;SDS011;41334;47.872;16.384;2022-07-05T02:26:04;5.88;;;3.08;;
55469;SDS011;41334;47.872;16.384;2022-07-05T02:29:08;7.80;;;3.55;;
55469;SDS011;41334;47.872;16.384;2022-07-05T02:32:11;5.65;;;3.55;;
55469;SDS011;41334;47.872;16.384;2022-07-05T02:35:13;5.32;;;3.65;;
55469;SDS011;41334;47.872;16.384;2022-07-05T02:38:16;9.35;;;3.33;;
55469;SDS011;41334;47.872;16.384;2022-07-05T02:41:18;3.97;;;2.83;;
55469;SDS011;41334;47.872;16.384;2022-07-05T02:44:23;3.45;;;2.70;;
55469;SDS011;41334;47.872;16.384;2022-07-05T02:47:28;6.53;;;3.20;;
55469;SDS011;41334;47.872;16.384;2022-07-05T02:53:35;10.18;;;3.38;;
55469;SDS011;41334;47.872;16.384;2022-07-05T02:56:40;8.68;;;2.97;;
55469;SDS011;41334;47.872;16.384;2022-07-05T02:59:44;7.70;;;3.53;;
55469;SDS011;41334;47.872;16.384;2022-07-05T03:02:45;5.53;;;3.55;;
55469;SDS011;41334;47.872;16.384;2022-07-05T03:05:49;10.30;;;3.67;;
55469;SDS011;41334;47.872;16.384;2022-07-05T03:08:51;6.18;;;3.30;;
55469;SDS011;41334;47.872;16.384;2022-07-05T03:11:53;7.07;;;3.40;;
55469;SDS011;41334;47.872;16.384;2022-07-05T03:14:55;6.47;;;3.30;;
55469;SDS011;41334;47.872;16.384;2022-07-05T03:17:57;10.07;;;3.67;;
55469;SDS011;41334;47.872;16.384;2022-07-05T03:21:02;5.20;;;3.30;;
55469;SDS011;41334;47.872;16.384;2022-07-05T03:24:07;9.65;;;3.47;;
55469;SDS011;41334;47.872;16.384;2022-07-05T03:27:10;5.60;;;3.15;;
55469;SDS011;41334;47.872;16.384;2022-07-05T03:30:22;6.53;;;3.60;;
55469;SDS011;41334;47.872;16.384;2022-07-05T03:33:25;11.73;;;3.45;;
55469;SDS011;41334;47.872;16.384;2022-07-05T03:36:32;6.95;;;3.45;;
55469;SDS011;41334;47.872;16.384;2022-07-05T03:42:41;6.38;;;3.30;;
55469;SDS011;41334;47.872;16.384;2022-07-05T03:45:43;5.03;;;3.13;;
55469;SDS011;41334;47.872;16.384;2022-07-05T03:48:45;6.30;;;3.20;;
55469;SDS011;41334;47.872;16.384;2022-07-05T03:51:51;5.25;;;3.25;;
55469;SDS011;41334;47.872;16.384;2022-07-05T03:54:53;5.38;;;3.10;;
55469;SDS011;41334;47.872;16.384;2022-07-05T03:57:55;4.45;;;2.88;;
55469;SDS011;41334;47.872;16.384;2022-07-05T04:00:57;5.10;;;3.13;;
55469;SDS011;41334;47.872;16.384;2022-07-05T04:04:03;7.25;;;2.97;;
55469;SDS011;41334;47.872;16.384;2022-07-05T04:07:06;4.28;;;2.65;;
55469;SDS011;41334;47.872;16.384;2022-07-05T04:10:09;6.18;;;2.95;;
55469;SDS011;41334;47.872;16.384;2022-07-05T04:13:11;6.82;;;2.35;;
55469;SDS011;41334;47.872;16.384;2022-07-05T04:16:13;5.47;;;3.10;;
55469;SDS011;41334;47.872;16.384;2022-07-05T04:19:15;4.22;;;2.40;;
55469;SDS011;41334;47.872;16.384;2022-07-05T04:22:18;4.13;;;2.70;;
55469;SDS011;41334;47.872;16.384;2022-07-05T04:25:20;5.68;;;2.63;;
55469;SDS011;41334;47.872;16.384;2022-07-05T04:28:30;3.22;;;2.40;;
55469;SDS011;41334;47.872;16.384;2022-07-05T04:31:33;3.75;;;2.90;;
55469;SDS011;41334;47.872;16.384;2022-07-05T04:34:38;4.00;;;2.97;;
55469;SDS011;41334;47.872;16.384;2022-07-05T04:37:41;8.90;;;2.78;;
55469;SDS011;41334;47.872;16.384;2022-07-05T04:40:44;9.18;;;2.35;;
55469;SDS011;41334;47.872;16.384;2022-07-05T04:43:47;7.57;;;2.28;;
55469;SDS011;41334;47.872;16.384;2022-07-05T04:46:50;4.65;;;2.13;;
55469;SDS011;41334;47.872;16.384;2022-07-05T04:49:53;7.70;;;2.10;;
55469;SDS011;41334;47.872;16.384;2022-07-05T04:52:55;4.60;;;2.00;;
55469;SDS011;41334;47.872;16.384;2022-07-05T04:55:57;2.63;;;2.05;;
55469;SDS011;41334;47.872;16.384;2022-07-05T04:58:59;3.85;;;2.40;;
55469;SDS011;41334;47.872;16.384;2022-07-05T05:02:03;5.05;;;2.45;;
55469;SDS011;41334;47.872;16.384;2022-07-05T05:05:06;6.55;;;2.60;;
55469;SDS011;41334;47.872;16.384;2022-07-05T05:08:09;6.30;;;2.53;;
55469;SDS011;41334;47.872;16.384;2022-07-05T05:11:10;7.13;;;2.47;;
55469;SDS011;41334;47.872;16.384;2022-07-05T05:14:13;4.10;;;2.38;;
55469;SDS011;41334;47.872;16.384;2022-07-05T05:17:15;9.52;;;2.70;;
55469;SDS011;41334;47.872;16.384;2022-07-05T05:20:18;4.70;;;2.38;;
55469;SDS011;41334;47.872;16.384;2022-07-05T05:23:23;5.65;;;2.63;;
55469;SDS011;41334;47.872;16.384;2022-07-05T05:26:25;7.68;;;2.33;;
55469;SDS011;41334;47.872;16.384;2022-07-05T05:29:27;3.30;;;2.40;;
55469;SDS011;41334;47.872;16.384;2022-07-05T05:32:29;4.32;;;2.63;;
55469;SDS011;41334;47.872;16.384;2022-07-05T05:35:31;3.67;;;3.00;;
55469;SDS011;41334;47.872;16.384;2022-07-05T05:38:32;5.15;;;2.83;;
55469;SDS011;41334;47.872;16.384;2022-07-05T05:41:34;10.98;;;3.17;;
55469;SDS011;41334;47.872;16.384;2022-07-05T05:44:37;7.65;;;3.20;;
55469;SDS011;41334;47.872;16.384;2022-07-05T05:47:42;4.22;;;2.80;;
55469;SDS011;41334;47.872;16.384;2022-07-05T05:50:48;4.82;;;2.53;;
55469;SDS011;41334;47.872;16.384;2022-07-05T05:53:50;4.50;;;3.20;;
55469;SDS011;41334;47.872;16.384;2022-07-05T05:56:52;3.97;;;2.97;;
55469;SDS011;41334;47.872;16.384;2022-07-05T05:59:54;6.20;;;2.88;;
55469;SDS011;41334;47.872;16.384;2022-07-05T06:02:56;4.85;;;3.03;;
55469;SDS011;41334;47.872;16.384;2022-07-05T06:05:58;5.85;;;2.85;;
55469;SDS011;41334;47.872;16.384;2022-07-05T06:09:00;6.63;;;2.80;;
55469;SDS011;41334;47.872;16.384;2022-07-05T06:12:02;4.15;;;2.80;;
55469;SDS011;41334;47.872;16.384;2022-07-05T06:15:04;10.15;;;2.90;;
55469;SDS011;41334;47.872;16.384;2022-07-05T06:18:07;4.57;;;2.63;;
55469;SDS011;41334;47.872;16.384;2022-07-05T06:21:10;6.55;;;2.95;;
55469;SDS011;41334;47.872;16.384;2022-07-05T06:24:12;5.75;;;3.08;;
55469;SDS011;41334;47.872;16.384;2022-07-05T06:27:14;6.20;;;3.25;;
55469;SDS011;41334;47.872;16.384;2022-07-05T06:30:16;5.40;;;3.60;;
55469;SDS011;41334;47.872;16.384;2022-07-05T06:33:20;7.57;;;3.20;;
55469;SDS011;41334;47.872;16.384;2022-07-05T06:36:22;4.63;;;3.05;;
55469;SDS011;41334;47.872;16.384;2022-07-05T06:39:24;4.05;;;2.97;;
55469;SDS011;41334;47.872;16.384;2022-07-05T06:42:25;5.85;;;3.25;;
55469;SDS011;41334;47.872;16.384;2022-07-05T06:45:27;2.83;;;2.55;;
55469;SDS011;41334;47.872;16.384;2022-07-05T06:48:29;9.00;;;3.17;;
55469;SDS011;41334;47.872;16.384;2022-07-05T06:51:32;4.35;;;3.55;;
55469;SDS011;41334;47.872;16.384;2022-07-05T06:54:34;4.63;;;3.08;;
55469;SDS011;41334;47.872;16.384;2022-07-05T06:58:24;9.75;;;3.47;;
55469;SDS011;41334;47.872;16.384;2022-07-05T07:01:19;9.10;;;3.63;;
55469;SDS011;41334;47.872;16.384;2022-07-05T07:04:22;4.78;;;2.80;;
55469;SDS011;41334;47.872;16.384;2022-07-05T07:07:34;4.72;;;3.10;;
55469;SDS011;41334;47.872;16.384;2022-07-05T07:10:54;6.78;;;2.78;;
55469;SDS011;41334;47.872;16.384;2022-07-05T07:13:56;5.80;;;2.75;;
55469;SDS011;41334;47.872;16.384;2022-07-05T07:16:58;3.03;;;2.38;;
55469;SDS011;41334;47.872;16.384;2022-07-05T07:20:00;3.08;;;2.35;;
55469;SDS011;41334;47.872;16.384;2022-07-05T07:23:02;5.10;;;2.40;;
55469;SDS011;41334;47.872;16.384;2022-07-05T07:26:04;5.18;;;2.67;;
55469;SDS011;41334;47.872;16.384;2022-07-05T07:29:06;5.70;;;2.40;;
55469;SDS011;41334;47.872;16.384;2022-07-05T07:32:08;3.45;;;2.13;;
55469;SDS011;41334;47.872;16.384;2022-07-05T07:35:11;3.33;;;1.88;;
55469;SDS011;41334;47.872;16.384;2022-07-05T07:38:13;3.20;;;1.95;;
55469;SDS011;41334;47.872;16.384;2022-07-05T07:41:14;4.80;;;2.30;;
55469;SDS011;41334;47.872;16.384;2022-07-05T07:44:16;2.78;;;1.80;;
55469;SDS011;41334;47.872;16.384;2022-07-05T07:47:19;5.15;;;2.42;;
55469;SDS011;41334;47.872;16.384;2022-07-05T07:50:20;2.08;;;1.52;;
55469;SDS011;41334;47.872;16.384;2022-07-05T07:53:22;1.98;;;0.90;;
55469;SDS011;41334;47.872;16.384;2022-07-05T07:56:24;1.10;;;0.70;;
55469;SDS011;41334;47.872;16.384;2022-07-05T07:59:27;2.60;;;0.80;;
55469;SDS011;41334;47.872;16.384;2022-07-05T08:02:29;3.38;;;0.60;;
55469;SDS011;41334;47.872;16.384;2022-07-05T08:05:30;1.52;;;0.70;;
55469;SDS011;41334;47.872;16.384;2022-07-05T08:08:32;1.63;;;0.68;;
55469;SDS011;41334;47.872;16.384;2022-07-05T08:11:34;2.10;;;0.52;;
55469;SDS011;41334;47.872;16.384;2022-07-05T08:14:36;1.20;;;0.70;;
55469;SDS011;41334;47.872;16.384;2022-07-05T08:17:38;4.30;;;0.65;;
55469;SDS011;41334;47.872;16.384;2022-07-05T08:21:01;1.70;;;0.65;;
55469;SDS011;41334;47.872;16.384;2022-07-05T08:24:21;1.15;;;0.57;;
55469;SDS011;41334;47.872;16.384;2022-07-05T08:27:24;1.00;;;0.60;;
55469;SDS011;41334;47.872;16.384;2022-07-05T08:30:26;1.00;;;0.40;;
55469;SDS011;41334;47.872;16.384;2022-07-05T08:33:28;1.10;;;0.70;;
55469;SDS011;41334;47.872;16.384;2022-07-05T08:36:30;0.80;;;0.30;;
55469;SDS011;41334;47.872;16.384;2022-07-05T08:39:32;1.13;;;0.57;;
55469;SDS011;41334;47.872;16.384;2022-07-05T08:42:37;1.25;;;0.47;;
55469;SDS011;41334;47.872;16.384;2022-07-05T08:45:44;0.17;;;0.10;;
55469;SDS011;41334;47.872;16.384;2022-07-05T08:48:48;0.63;;;0.35;;
55469;SDS011;41334;47.872;16.384;2022-07-05T08:51:52;1.77;;;0.30;;
55469;SDS011;41334;47.872;16.384;2022-07-05T08:54:55;1.52;;;0.40;;
55469;SDS011;41334;47.872;16.384;2022-07-05T08:57:59;0.75;;;0.30;;
55469;SDS011;41334;47.872;16.384;2022-07-05T09:01:02;0.50;;;0.30;;
55469;SDS011;41334;47.872;16.384;2022-07-05T09:04:05;0.28;;;0.20;;
55469;SDS011;41334;47.872;16.384;2022-07-05T09:07:12;1.15;;;0.30;;
55469;SDS011;41334;47.872;16.384;2022-07-05T09:10:18;1.75;;;0.30;;
55469;SDS011;41334;47.872;16.384;2022-07-05T09:13:23;0.10;;;0.10;;
55469;SDS011;41334;47.872;16.384;2022-07-05T09:16:24;0.68;;;0.20;;
55469;SDS011;41334;47.872;16.384;2022-07-05T09:19:27;0.30;;;0.22;;
55469;SDS011;41334;47.872;16.384;2022-07-05T09:22:40;0.75;;;0.30;;
55469;SDS011;41334;47.872;16.384;2022-07-05T09:25:46;0.77;;;0.40;;
55469;SDS011;41334;47.872;16.384;2022-07-05T09:28:55;0.55;;;0.40;;
55469;SDS011;41334;47.872;16.384;2022-07-05T09:31:58;0.60;;;0.22;;
55469;SDS011;41334;47.872;16.384;2022-07-05T09:35:19;0.52;;;0.28;;
55469;SDS011;41334;47.872;16.384;2022-07-05T09:38:21;0.68;;;0.43;;
55469;SDS011;41334;47.872;16.384;2022-07-05T09:41:24;2.17;;;0.60;;
55469;SDS011;41334;47.872;16.384;2022-07-05T09:44:25;0.73;;;0.50;;
55469;SDS011;41334;47.872;16.384;2022-07-05T09:47:27;2.90;;;0.70;;
55469;SDS011;41334;47.872;16.384;2022-07-05T09:50:33;1.70;;;0.70;;
55469;SDS011;41334;47.872;16.384;2022-07-05T09:57:03;1.70;;;0.87;;
55469;SDS011;41334;47.872;16.384;2022-07-05T10:03:12;1.40;;;0.80;;
55469;SDS011;41334;47.872;16.384;2022-07-05T10:06:14;1.75;;;0.82;;
55469;SDS011;41334;47.872;16.384;2022-07-05T10:09:16;1.77;;;0.85;;
55469;SDS011;41334;47.872;16.384;2022-07-05T10:12:19;2.33;;;0.98;;
55469;SDS011;41334;47.872;16.384;2022-07-05T10:15:22;0.82;;;0.38;;
55469;SDS011;41334;47.872;16.384;2022-07-05T10:18:28;2.65;;;0.70;;
55469;SDS011;41334;47.872;16.384;2022-07-05T10:21:33;2.53;;;0.50;;
55469;SDS011;41334;47.872;16.384;2022-07-05T10:24:55;1.38;;;0.50;;
55469;SDS011;41334;47.872;16.384;2022-07-05T10:28:02;2.45;;;0.88;;
55469;SDS011;41334;47.872;16.384;2022-07-05T10:31:05;1.52;;;0.90;;
55469;SDS011;41334;47.872;16.384;2022-07-05T10:34:10;1.55;;;0.75;;
55469;SDS011;41334;47.872;16.384;2022-07-05T10:37:33;0.82;;;0.57;;
55469;SDS011;41334;47.872;16.384;2022-07-05T10:40:36;0.73;;;0.47;;
55469;SDS011;41334;47.872;16.384;2022-07-05T10:43:39;2.88;;;0.73;;
55469;SDS011;41334;47.872;16.384;2022-07-05T10:46:41;0.93;;;0.50;;
55469;SDS011;41334;47.872;16.384;2022-07-05T10:49:47;2.35;;;0.88;;
55469;SDS011;41334;47.872;16.384;2022-07-05T10:53:02;1.02;;;0.60;;
55469;SDS011;41334;47.872;16.384;2022-07-05T10:59:09;2.08;;;0.75;;
55469;SDS011;41334;47.872;16.384;2022-07-05T11:02:14;1.25;;;0.90;;
55469;SDS011;41334;47.872;16.384;2022-07-05T11:05:16;1.25;;;0.70;;
55469;SDS011;41334;47.872;16.384;2022-07-05T11:08:18;1.45;;;0.80;;
55469;SDS011;41334;47.872;16.384;2022-07-05T11:11:23;1.17;;;0.80;;
55469;SDS011;41334;47.872;16.384;2022-07-05T11:17:27;1.67;;;0.85;;
55469;SDS011;41334;47.872;16.384;2022-07-05T11:20:51;1.42;;;1.00;;
55469;SDS011;41334;47.872;16.384;2022-07-05T11:24:42;1.17;;;0.85;;
55469;SDS011;41334;47.872;16.384;2022-07-05T11:31:06;1.67;;;0.70;;
55469;SDS011;41334;47.872;16.384;2022-07-05T11:34:12;1.00;;;0.60;;
55469;SDS011;41334;47.872;16.384;2022-07-05T11:40:46;1.42;;;0.70;;
55469;SDS011;41334;47.872;16.384;2022-07-05T11:43:55;1.52;;;0.90;;
55469;SDS011;41334;47.872;16.384;2022-07-05T11:46:58;1.17;;;0.77;;
55469;SDS011;41334;47.872;16.384;2022-07-05T11:50:08;1.30;;;0.90;;
55469;SDS011;41334;47.872;16.384;2022-07-05T11:53:11;2.58;;;0.80;;
55469;SDS011;41334;47.872;16.384;2022-07-05T11:56:13;1.83;;;1.20;;
55469;SDS011;41334;47.872;16.384;2022-07-05T11:59:16;2.03;;;1.17;;
55469;SDS011;41334;47.872;16.384;2022-07-05T12:02:22;1.70;;;1.42;;
55469;SDS011;41334;47.872;16.384;2022-07-05T12:05:28;3.17;;;1.08;;
55469;SDS011;41334;47.872;16.384;2022-07-05T12:08:32;1.90;;;1.05;;
55469;SDS011;41334;47.872;16.384;2022-07-05T12:11:35;1.83;;;1.35;;
55469;SDS011;41334;47.872;16.384;2022-07-05T12:14:56;1.70;;;1.08;;
55469;SDS011;41334;47.872;16.384;2022-07-05T12:17:59;1.70;;;1.02;;
55469;SDS011;41334;47.872;16.384;2022-07-05T12:21:11;3.45;;;1.10;;
55469;SDS011;41334;47.872;16.384;2022-07-05T12:24:15;1.65;;;1.10;;
55469;SDS011;41334;47.872;16.384;2022-07-05T12:27:17;2.20;;;1.17;;
55469;SDS011;41334;47.872;16.384;2022-07-05T12:30:19;2.25;;;1.05;;
55469;SDS011;41334;47.872;16.384;2022-07-05T12:33:22;3.38;;;1.02;;
55469;SDS011;41334;47.872;16.384;2022-07-05T12:36:24;1.95;;;1.25;;
55469;SDS011;41334;47.872;16.384;2022-07-05T12:39:29;0.95;;;0.55;;
55469;SDS011;41334;47.872;16.384;2022-07-05T12:42:31;2.13;;;1.02;;
55469;SDS011;41334;47.872;16.384;2022-07-05T12:45:43;2.85;;;1.17;;
55469;SDS011;41334;47.872;16.384;2022-07-05T12:48:59;2.72;;;1.27;;
55469;SDS011;41334;47.872;16.384;2022-07-05T12:52:04;1.60;;;1.10;;
55469;SDS011;41334;47.872;16.384;2022-07-05T12:55:11;2.30;;;1.10;;
55469;SDS011;41334;47.872;16.384;2022-07-05T12:58:32;1.73;;;0.93;;
55469;SDS011;41334;47.872;16.384;2022-07-05T13:01:36;1.02;;;0.60;;
55469;SDS011;41334;47.872;16.384;2022-07-05T13:07:53;1.65;;;0.88;;
55469;SDS011;41334;47.872;16.384;2022-07-05T13:10:58;0.85;;;0.60;;
55469;SDS011;41334;47.872;16.384;2022-07-05T13:14:00;1.40;;;1.02;;
55469;SDS011;41334;47.872;16.384;2022-07-05T13:17:02;2.45;;;1.20;;
55469;SDS011;41334;47.872;16.384;2022-07-05T13:20:04;1.95;;;1.08;;
55469;SDS011;41334;47.872;16.384;2022-07-05T13:23:07;3.92;;;1.00;;
55469;SDS011;41334;47.872;16.384;2022-07-05T13:26:09;1.15;;;0.80;;
55469;SDS011;41334;47.872;16.384;2022-07-05T13:29:10;1.80;;;0.95;;
55469;SDS011;41334;47.872;16.384;2022-07-05T13:32:12;4.43;;;1.17;;
55469;SDS011;41334;47.872;16.384;2022-07-05T13:35:16;1.70;;;1.00;;
55469;SDS011;41334;47.872;16.384;2022-07-05T13:38:18;1.48;;;0.95;;
55469;SDS011;41334;47.872;16.384;2022-07-05T13:41:21;1.75;;;0.93;;
55469;SDS011;41334;47.872;16.384;2022-07-05T13:44:23;1.50;;;1.23;;
55469;SDS011;41334;47.872;16.384;2022-07-05T13:47:24;1.33;;;1.10;;
55469;SDS011;41334;47.872;16.384;2022-07-05T13:50:26;1.40;;;0.95;;
55469;SDS011;41334;47.872;16.384;2022-07-05T13:53:34;1.60;;;0.70;;
55469;SDS011;41334;47.872;16.384;2022-07-05T13:56:38;1.35;;;0.82;;
55469;SDS011;41334;47.872;16.384;2022-07-05T13:59:39;2.55;;;0.80;;
55469;SDS011;41334;47.872;16.384;2022-07-05T14:02:42;1.23;;;0.68;;
55469;SDS011;41334;47.872;16.384;2022-07-05T14:05:44;1.52;;;1.10;;
55469;SDS011;41334;47.872;16.384;2022-07-05T14:08:46;1.60;;;0.77;;
55469;SDS011;41334;47.872;16.384;2022-07-05T14:11:48;1.45;;;1.05;;
55469;SDS011;41334;47.872;16.384;2022-07-05T14:14:49;3.00;;;0.93;;
55469;SDS011;41334;47.872;16.384;2022-07-05T14:17:51;1.40;;;0.85;;
55469;SDS011;41334;47.872;16.384;2022-07-05T14:20:53;1.67;;;1.10;;
55469;SDS011;41334;47.872;16.384;2022-07-05T14:23:55;2.80;;;1.02;;
55469;SDS011;41334;47.872;16.384;2022-07-05T14:26:58;0.95;;;0.68;;
55469;SDS011;41334;47.872;16.384;2022-07-05T14:29:59;3.20;;;1.00;;
55469;SDS011;41334;47.872;16.384;2022-07-05T14:33:02;3.95;;;1.30;;
55469;SDS011;41334;47.872;16.384;2022-07-05T14:36:04;2.08;;;1.08;;
55469;SDS011;41334;47.872;16.384;2022-07-05T14:39:06;2.72;;;1.58;;
55469;SDS011;41334;47.872;16.384;2022-07-05T14:42:07;1.27;;;0.98;;
55469;SDS011;41334;47.872;16.384;2022-07-05T14:45:10;2.20;;;1.10;;
55469;SDS011;41334;47.872;16.384;2022-07-05T14:48:12;2.75;;;1.20;;
55469;SDS011;41334;47.872;16.384;2022-07-05T14:51:14;2.85;;;1.42;;
55469;SDS011;41334;47.872;16.384;2022-07-05T14:54:16;0.70;;;0.43;;
55469;SDS011;41334;47.872;16.384;2022-07-05T14:57:18;1.67;;;0.63;;
55469;SDS011;41334;47.872;16.384;2022-07-05T15:00:19;1.35;;;1.00;;
55469;SDS011;41334;47.872;16.384;2022-07-05T15:03:21;0.90;;;0.43;;
55469;SDS011;41334;47.872;16.384;2022-07-05T15:06:25;0.80;;;0.40;;
55469;SDS011;41334;47.872;16.384;2022-07-05T15:09:27;1.85;;;0.80;;
55469;SDS011;41334;47.872;16.384;2022-07-05T15:12:28;1.55;;;1.00;;
55469;SDS011;41334;47.872;16.384;2022-07-05T15:15:30;2.47;;;0.90;;
55469;SDS011;41334;47.872;16.384;2022-07-05T15:18:32;2.78;;;0.90;;
55469;SDS011;41334;47.872;16.384;2022-07-05T15:21:34;1.95;;;0.90;;
55469;SDS011;41334;47.872;16.384;2022-07-05T15:24:37;1.63;;;0.70;;
55469;SDS011;41334;47.872;16.384;2022-07-05T15:27:38;2.13;;;1.30;;
55469;SDS011;41334;47.872;16.384;2022-07-05T15:30:40;1.70;;;1.30;;
55469;SDS011;41334;47.872;16.384;2022-07-05T15:33:42;1.80;;;1.30;;
55469;SDS011;41334;47.872;16.384;2022-07-05T15:36:44;1.38;;;0.90;;
55469;SDS011;41334;47.872;16.384;2022-07-05T15:39:46;4.22;;;0.95;;
55469;SDS011;41334;47.872;16.384;2022-07-05T15:42:47;1.92;;;1.17;;
55469;SDS011;41334;47.872;16.384;2022-07-05T15:45:49;0.93;;;0.52;;
55469;SDS011;41334;47.872;16.384;2022-07-05T15:48:51;1.77;;;1.30;;
55469;SDS011;41334;47.872;16.384;2022-07-05T15:51:55;3.03;;;1.38;;
55469;SDS011;41334;47.872;16.384;2022-07-05T15:54:58;1.88;;;1.60;;
55469;SDS011;41334;47.872;16.384;2022-07-05T15:58:00;2.58;;;1.60;;
55469;SDS011;41334;47.872;16.384;2022-07-05T16:01:02;2.17;;;1.33;;
55469;SDS011;41334;47.872;16.384;2022-07-05T16:04:04;2.03;;;1.17;;
55469;SDS011;41334;47.872;16.384;2022-07-05T16:07:06;2.55;;;1.60;;
55469;SDS011;41334;47.872;16.384;2022-07-05T16:10:08;2.63;;;1.52;;
55469;SDS011;41334;47.872;16.384;2022-07-05T16:13:31;2.13;;;1.58;;
55469;SDS011;41334;47.872;16.384;2022-07-05T16:16:32;1.92;;;1.15;;
55469;SDS011;41334;47.872;16.384;2022-07-05T16:19:34;1.60;;;1.23;;
55469;SDS011;41334;47.872;16.384;2022-07-05T16:22:36;1.85;;;1.20;;
55469;SDS011;41334;47.872;16.384;2022-07-05T16:25:38;1.63;;;1.30;;
55469;SDS011;41334;47.872;16.384;2022-07-05T16:28:40;1.92;;;1.30;;
55469;SDS011;41334;47.872;16.384;2022-07-05T16:31:43;4.43;;;1.80;;
55469;SDS011;41334;47.872;16.384;2022-07-05T16:34:45;2.00;;;1.80;;
55469;SDS011;41334;47.872;16.384;2022-07-05T16:37:47;2.45;;;1.98;;
55469;SDS011;41334;47.872;16.384;2022-07-05T16:40:49;3.25;;;1.70;;
55469;SDS011;41334;47.872;16.384;2022-07-05T16:43:51;2.80;;;1.70;;
55469;SDS011;41334;47.872;16.384;2022-07-05T16:46:52;2.90;;;1.67;;
55469;SDS011;41334;47.872;16.384;2022-07-05T16:49:54;2.53;;;1.85;;
55469;SDS011;41334;47.872;16.384;2022-07-05T16:52:56;1.70;;;1.45;;
55469;SDS011;41334;47.872;16.384;2022-07-05T16:55:59;2.63;;;1.58;;
55469;SDS011;41334;47.872;16.384;2022-07-05T16:59:00;2.38;;;1.92;;
55469;SDS011;41334;47.872;16.384;2022-07-05T17:02:02;2.60;;;2.00;;
55469;SDS011;41334;47.872;16.384;2022-07-05T17:05:06;1.98;;;1.67;;
55469;SDS011;41334;47.872;16.384;2022-07-05T17:08:10;3.13;;;1.92;;
55469;SDS011;41334;47.872;16.384;2022-07-05T17:11:12;4.75;;;1.60;;
55469;SDS011;41334;47.872;16.384;2022-07-05T17:14:16;7.18;;;2.03;;
55469;SDS011;41334;47.872;16.384;2022-07-05T17:17:18;2.50;;;2.00;;
55469;SDS011;41334;47.872;16.384;2022-07-05T17:20:20;3.38;;;2.30;;
55469;SDS011;41334;47.872;16.384;2022-07-05T17:23:22;2.17;;;1.67;;
55469;SDS011;41334;47.872;16.384;2022-07-05T17:26:25;2.33;;;1.58;;
55469;SDS011;41334;47.872;16.384;2022-07-05T17:29:36;3.42;;;2.17;;
55469;SDS011;41334;47.872;16.384;2022-07-05T17:32:38;1.92;;;1.55;;
55469;SDS011;41334;47.872;16.384;2022-07-05T17:35:40;3.25;;;1.90;;
55469;SDS011;41334;47.872;16.384;2022-07-05T17:38:43;3.53;;;1.90;;
55469;SDS011;41334;47.872;16.384;2022-07-05T17:41:46;2.97;;;2.30;;
55469;SDS011;41334;47.872;16.384;2022-07-05T17:44:48;2.75;;;1.70;;
55469;SDS011;41334;47.872;16.384;2022-07-05T17:47:53;3.85;;;2.13;;
55469;SDS011;41334;47.872;16.384;2022-07-05T17:50:55;2.60;;;2.33;;
55469;SDS011;41334;47.872;16.384;2022-07-05T17:53:57;4.32;;;2.38;;
55469;SDS011;41334;47.872;16.384;2022-07-05T17:56:59;3.42;;;2.35;;
55469;SDS011;41334;47.872;16.384;2022-07-05T18:00:01;2.72;;;1.98;;
55469;SDS011;41334;47.872;16.384;2022-07-05T18:03:12;3.30;;;2.33;;
55469;SDS011;41334;47.872;16.384;2022-07-05T18:06:14;8.73;;;2.90;;
55469;SDS011;41334;47.872;16.384;2022-07-05T18:09:18;2.95;;;2.53;;
55469;SDS011;41334;47.872;16.384;2022-07-05T18:12:20;4.20;;;2.70;;
55469;SDS011;41334;47.872;16.384;2022-07-05T18:15:22;3.10;;;2.60;;
55469;SDS011;41334;47.872;16.384;2022-07-05T18:18:24;3.20;;;2.90;;
55469;SDS011;41334;47.872;16.384;2022-07-05T18:21:26;3.42;;;2.60;;
55469;SDS011;41334;47.872;16.384;2022-07-05T18:24:28;3.83;;;2.63;;
55469;SDS011;41334;47.872;16.384;2022-07-05T18:27:30;5.97;;;2.70;;
55469;SDS011;41334;47.872;16.384;2022-07-05T18:30:32;3.83;;;3.05;;
55469;SDS011;41334;47.872;16.384;2022-07-05T18:33:34;5.88;;;2.35;;
55469;SDS011;41334;47.872;16.384;2022-07-05T18:36:36;2.83;;;2.50;;
55469;SDS011;41334;47.872;16.384;2022-07-05T18:39:38;3.75;;;2.90;;